Time;durP1;ratioP1;P1;durP2;ratioP2;P2;SDS_P1;SDS_P2;PMS_P1;PMS_P2;Temp;Humidity;BMP_temperature;BMP_pressure;BME280_temperature;BME280_humidity;BME280_pressure;Samples;Min_cycle;Max_cycle;Signal;HPM_P1;HPM_P2
2021/09/08 00:01:17;;;;;;;15.82;8.30;;;;;;;16.16;74.67;101734.63;5013403;28;20034;-77
2021/09/08 00:03:43;;;;;;;15.25;8.57;;;;;;;16.13;74.70;101730.56;5009610;28;20042;-77
2021/09/08 00:06:08;;;;;;;15.93;8.90;;;;;;;16.06;74.91;101732.22;5002973;28;20284;-77
2021/09/08 00:08:34;;;;;;;14.10;8.20;;;;;;;15.99;75.22;101727.84;5020392;28;20048;-77
2021/09/08 00:10:59;;;;;;;17.42;8.48;;;;;;;15.89;75.45;101723.59;5018490;28;20038;-77
2021/09/08 00:13:25;;;;;;;15.80;8.73;;;;;;;15.80;75.83;101722.00;5019122;28;20043;-77
2021/09/08 00:15:50;;;;;;;15.18;9.65;;;;;;;15.74;76.02;101723.47;5028892;28;20024;-77
2021/09/08 00:18:16;;;;;;;14.27;8.98;;;;;;;15.71;76.03;101715.16;5008380;28;20048;-77
2021/09/08 00:20:42;;;;;;;17.20;9.05;;;;;;;15.68;76.28;101718.09;5000808;28;20032;-77
2021/09/08 00:23:07;;;;;;;13.93;9.10;;;;;;;15.70;76.21;101714.31;5009731;28;20037;-76
2021/09/08 00:25:33;;;;;;;21.10;9.00;;;;;;;15.73;76.00;101716.66;5012940;28;20390;-77
2021/09/08 00:27:59;;;;;;;16.17;8.90;;;;;;;15.74;75.91;101713.03;5008959;28;20048;-77
2021/09/08 00:30:25;;;;;;;18.50;9.32;;;;;;;15.78;75.67;101713.50;5013954;28;20058;-77
2021/09/08 00:32:53;;;;;;;18.02;9.68;;;;;;;15.80;75.43;101706.31;5026109;28;20413;-77
2021/09/08 00:35:18;;;;;;;13.95;9.00;;;;;;;15.81;75.50;101707.16;5026099;28;20029;-77
2021/09/08 00:37:44;;;;;;;16.23;9.25;;;;;;;15.77;75.58;101707.47;5017369;28;20049;-77
2021/09/08 00:40:11;;;;;;;15.43;8.52;;;;;;;15.75;75.80;101704.22;5016404;28;20517;-77
2021/09/08 00:42:40;;;;;;;19.27;11.05;;;;;;;15.73;75.80;101702.72;5024741;28;20029;-76
2021/09/08 00:45:07;;;;;;;13.57;8.80;;;;;;;15.71;75.98;101705.50;5009265;28;20101;-77
2021/09/08 00:47:34;;;;;;;13.02;8.07;;;;;;;15.69;76.09;101702.25;5001870;28;20143;-77
2021/09/08 00:50:00;;;;;;;17.77;8.85;;;;;;;15.67;76.28;101700.75;5010412;28;20029;-77
2021/09/08 00:52:26;;;;;;;16.35;9.40;;;;;;;15.63;76.44;101699.47;4998812;28;20264;-77
2021/09/08 00:54:55;;;;;;;16.02;9.40;;;;;;;15.63;76.40;101697.66;5029954;28;20161;-76
2021/09/08 00:57:22;;;;;;;13.93;8.73;;;;;;;15.63;76.27;101697.66;5025596;28;20039;-77
2021/09/08 00:59:48;;;;;;;20.27;9.52;;;;;;;15.60;76.45;101705.06;5013471;28;20322;-77
2021/09/08 01:02:15;;;;;;;19.35;10.38;;;;;;;15.58;76.50;101697.38;5008353;28;20041;-76
2021/09/08 01:04:43;;;;;;;17.15;10.82;;;;;;;15.57;76.73;101700.97;5027418;28;20197;-77
2021/09/08 01:07:09;;;;;;;20.13;8.63;;;;;;;15.57;76.24;101703.56;5018318;28;20037;-77
2021/09/08 01:09:37;;;;;;;17.92;9.98;;;;;;;15.58;75.99;101692.16;5031115;28;20341;-77
2021/09/08 01:12:07;;;;;;;17.95;9.95;;;;;;;15.60;76.03;101686.75;5029280;28;20038;-77
2021/09/08 01:14:33;;;;;;;16.40;9.60;;;;;;;15.60;76.07;101692.00;5011391;28;20056;-76
2021/09/08 01:16:59;;;;;;;27.20;11.00;;;;;;;15.60;76.18;101690.19;4999437;28;20518;-76
2021/09/08 01:19:26;;;;;;;17.10;10.55;;;;;;;15.58;76.65;101690.34;5002009;28;20037;-77
2021/09/08 01:21:51;;;;;;;14.70;9.50;;;;;;;15.55;76.99;101702.94;5013700;28;20037;-76
2021/09/08 01:24:18;;;;;;;13.90;8.82;;;;;;;15.50;77.29;101700.81;5029059;28;20037;-77
2021/09/08 01:26:47;;;;;;;19.58;10.40;;;;;;;15.50;77.29;101687.75;5019497;28;20123;-76
2021/09/08 01:29:12;;;;;;;15.70;8.68;;;;;;;15.48;77.17;101694.94;5029113;28;20044;-77
2021/09/08 01:31:38;;;;;;;15.27;8.80;;;;;;;15.48;77.09;101688.88;4994925;28;20266;-76
2021/09/08 01:34:04;;;;;;;19.77;11.05;;;;;;;15.45;76.97;101684.00;5015227;28;20025;-76
2021/09/08 01:36:39;;;;;;;14.43;9.05;;;;;;;15.43;77.25;101680.75;5030240;28;20040;-76
2021/09/08 01:39:06;;;;;;;15.75;9.60;;;;;;;15.39;77.29;101685.50;5020750;28;20037;-76
2021/09/08 01:41:31;;;;;;;18.13;9.52;;;;;;;15.38;77.34;101683.84;5005299;28;20036;-76
2021/09/08 01:43:57;;;;;;;17.25;10.35;;;;;;;15.36;77.61;101685.81;5028961;28;20049;-76
2021/09/08 01:46:23;;;;;;;13.68;8.88;;;;;;;15.33;77.48;101676.53;5011247;28;20040;-76
2021/09/08 01:48:49;;;;;;;15.90;10.23;;;;;;;15.31;77.74;101685.47;5011022;28;20045;-76
2021/09/08 01:51:16;;;;;;;15.25;8.82;;;;;;;15.31;77.69;101680.25;4994878;28;20041;-77
2021/09/08 01:53:42;;;;;;;16.17;10.18;;;;;;;15.31;77.15;101675.88;4994663;28;20029;-78
2021/09/08 01:56:07;;;;;;;17.40;9.70;;;;;;;15.30;77.16;101673.41;5024476;28;20071;-78
2021/09/08 01:58:33;;;;;;;17.42;10.55;;;;;;;15.27;77.45;101679.78;5035043;28;20033;-77
2021/09/08 02:01:02;;;;;;;15.23;9.73;;;;;;;15.24;77.70;101682.72;5022603;28;20487;-77
2021/09/08 02:03:27;;;;;;;14.95;9.52;;;;;;;15.24;77.36;101682.72;5015342;28;20164;-76
2021/09/08 02:05:52;;;;;;;16.42;9.10;;;;;;;15.23;77.32;101686.31;5012511;28;20037;-76
2021/09/08 02:08:18;;;;;;;18.90;10.20;;;;;;;15.21;77.30;101683.06;5012855;28;20103;-77
2021/09/08 02:10:43;;;;;;;16.58;9.30;;;;;;;15.21;77.31;101677.03;5028061;28;20041;-77
2021/09/08 02:13:11;;;;;;;16.42;9.10;;;;;;;15.19;77.64;101677.19;5029241;28;20223;-77
2021/09/08 02:15:36;;;;;;;16.02;9.52;;;;;;;15.16;77.87;101675.72;5014221;28;20037;-76
2021/09/08 02:18:02;;;;;;;17.38;9.77;;;;;;;15.14;77.79;101675.06;5010035;28;20034;-77
2021/09/08 02:20:27;;;;;;;16.95;9.80;;;;;;;15.14;77.78;101674.25;4997500;28;20057;-76
2021/09/08 02:22:53;;;;;;;16.65;9.18;;;;;;;15.12;77.85;101678.81;5014970;28;20083;-76
2021/09/08 02:25:19;;;;;;;15.90;9.55;;;;;;;15.11;77.99;101690.25;5018497;28;20060;-76
2021/09/08 02:27:44;;;;;;;17.23;9.27;;;;;;;15.09;77.93;101679.16;5027653;28;20410;-76
2021/09/08 02:30:10;;;;;;;18.63;10.52;;;;;;;15.05;78.12;101673.44;5010516;28;20068;-77
2021/09/08 02:32:36;;;;;;;21.27;10.48;;;;;;;15.02;78.33;101678.19;5013370;28;20037;-76
2021/09/08 02:35:02;;;;;;;17.52;10.95;;;;;;;14.99;78.47;101680.13;5027937;28;20052;-76
2021/09/08 02:37:28;;;;;;;16.92;10.00;;;;;;;14.98;78.38;101677.69;5018410;28;20091;-76
2021/09/08 02:39:53;;;;;;;17.58;10.10;;;;;;;14.97;78.22;101676.03;5027688;28;20053;-76
2021/09/08 02:42:19;;;;;;;19.98;10.75;;;;;;;14.94;77.99;101682.41;5033526;28;20033;-76
2021/09/08 02:44:44;;;;;;;17.13;9.77;;;;;;;14.91;78.09;101672.28;5014697;28;20491;-77
2021/09/08 02:47:13;;;;;;;15.77;9.65;;;;;;;14.90;78.04;101675.91;5018951;28;20533;-76
2021/09/08 02:49:39;;;;;;;17.17;10.02;;;;;;;14.86;78.02;101676.38;5022791;28;20034;-77
2021/09/08 02:52:04;;;;;;;16.08;9.38;;;;;;;14.84;78.19;101671.31;5001940;28;20568;-76
2021/09/08 02:54:49;;;;;;;23.63;11.00;;;;;;;14.80;78.19;101667.38;5016391;28;20073;-76
2021/09/08 02:57:14;;;;;;;18.48;9.25;;;;;;;14.79;78.12;101668.38;5018457;28;20487;-76
2021/09/08 02:59:39;;;;;;;14.60;9.68;;;;;;;14.75;77.77;101662.66;4996317;28;20041;-75
2021/09/08 03:02:05;;;;;;;18.23;9.93;;;;;;;14.75;77.84;101667.09;5011292;28;20033;-76
2021/09/08 03:04:30;;;;;;;16.88;9.82;;;;;;;14.73;77.73;101661.19;5026205;28;20116;-76
2021/09/08 03:06:56;;;;;;;15.05;9.25;;;;;;;14.66;77.86;101653.19;5018215;28;20037;-76
2021/09/08 03:09:21;;;;;;;14.00;9.20;;;;;;;14.57;78.08;101649.75;5015643;28;20029;-76
2021/09/08 03:11:47;;;;;;;17.15;10.48;;;;;;;14.50;78.39;101669.59;4992880;28;20479;-76
2021/09/08 03:14:12;;;;;;;18.90;9.43;;;;;;;14.43;78.74;101654.75;5025812;28;20072;-76
2021/09/08 03:16:38;;;;;;;16.17;9.50;;;;;;;14.38;78.78;101657.84;5021124;28;20033;-76
2021/09/08 03:19:03;;;;;;;18.38;9.65;;;;;;;14.33;78.96;101653.09;4996365;28;20029;-76
2021/09/08 03:21:29;;;;;;;16.98;10.15;;;;;;;14.31;79.06;101643.81;5029820;28;20427;-76
2021/09/08 03:23:55;;;;;;;14.93;9.93;;;;;;;14.31;79.06;101649.03;5017488;28;20026;-76
2021/09/08 03:26:21;;;;;;;17.58;9.30;;;;;;;14.28;79.19;101647.56;5017231;28;20037;-75
2021/09/08 03:28:46;;;;;;;21.98;10.88;;;;;;;14.26;79.34;101646.06;5026934;28;20599;-76
2021/09/08 03:31:12;;;;;;;18.10;10.35;;;;;;;14.24;79.46;101650.63;5027693;28;20075;-76
2021/09/08 03:33:38;;;;;;;18.98;9.65;;;;;;;14.18;79.79;101639.88;4993546;28;20533;-76
2021/09/08 03:36:03;;;;;;;17.55;10.57;;;;;;;14.12;79.89;101640.50;5032262;28;20041;-75
2021/09/08 03:38:29;;;;;;;17.48;9.90;;;;;;;14.07;80.06;101637.56;5011789;28;20527;-76
2021/09/08 03:40:54;;;;;;;18.55;9.88;;;;;;;14.02;80.22;101638.03;5027965;28;20044;-75
2021/09/08 03:43:20;;;;;;;17.88;8.60;;;;;;;14.01;80.07;101636.41;5008732;28;20487;-76
2021/09/08 03:45:46;;;;;;;16.27;9.57;;;;;;;14.02;80.17;101630.22;5014483;28;20040;-75
2021/09/08 03:48:11;;;;;;;18.10;10.00;;;;;;;14.05;79.90;101629.06;5016195;28;20494;-76
2021/09/08 03:50:37;;;;;;;15.68;9.48;;;;;;;14.08;79.66;101631.38;5021143;28;20042;-76
2021/09/08 03:53:03;;;;;;;17.27;9.57;;;;;;;14.10;79.38;101626.00;5015299;28;20021;-76
2021/09/08 03:55:29;;;;;;;20.25;10.55;;;;;;;14.10;79.38;101620.78;5029302;28;20176;-76
2021/09/08 03:57:54;;;;;;;18.73;10.35;;;;;;;14.08;79.61;101628.75;4997170;28;20124;-76
2021/09/08 04:00:20;;;;;;;16.17;9.98;;;;;;;14.02;79.77;101625.00;5012082;28;20037;-75
2021/09/08 04:02:45;;;;;;;15.77;9.40;;;;;;;13.96;79.93;101628.25;5009177;28;20048;-76
2021/09/08 04:05:12;;;;;;;19.63;10.52;;;;;;;13.88;80.29;101628.22;5009165;28;20025;-76
2021/09/08 04:07:38;;;;;;;17.70;9.05;;;;;;;13.84;80.44;101626.88;5010948;28;20042;-76
2021/09/08 04:10:05;;;;;;;17.60;9.63;;;;;;;13.83;80.45;101627.88;5019720;28;20052;-75
2021/09/08 04:12:30;;;;;;;20.58;9.70;;;;;;;13.81;80.43;101625.41;5026133;28;20444;-75
2021/09/08 04:14:56;;;;;;;18.30;10.52;;;;;;;13.83;80.48;101625.28;5019310;28;20033;-75
2021/09/08 04:17:21;;;;;;;15.98;9.35;;;;;;;13.86;80.24;101624.94;5015449;28;20041;-75
2021/09/08 04:19:47;;;;;;;16.48;9.90;;;;;;;13.86;80.18;101619.72;5038860;28;20094;-75
2021/09/08 04:22:12;;;;;;;16.42;10.02;;;;;;;13.88;80.22;101616.97;5010665;28;20040;-75
2021/09/08 04:24:38;;;;;;;15.63;9.45;;;;;;;13.86;80.18;101613.69;5031849;28;20082;-75
2021/09/08 04:27:04;;;;;;;16.95;9.55;;;;;;;13.85;80.15;101612.09;5016094;28;20438;-75
2021/09/08 04:29:29;;;;;;;21.00;10.98;;;;;;;13.86;80.17;101616.31;5033666;28;20025;-75
2021/09/08 04:31:54;;;;;;;17.80;10.57;;;;;;;13.84;79.96;101616.47;5018013;28;20457;-76
2021/09/08 04:34:20;;;;;;;17.50;8.88;;;;;;;13.80;80.12;101615.16;5018182;28;20033;-75
2021/09/08 04:36:46;;;;;;;21.70;9.93;;;;;;;13.78;80.20;101614.50;5030275;28;20398;-75
2021/09/08 04:39:11;;;;;;;20.20;11.27;;;;;;;13.74;80.47;101608.78;5024133;28;20037;-75
2021/09/08 04:41:37;;;;;;;16.63;9.15;;;;;;;13.73;80.52;101614.13;5034145;28;20048;-75
2021/09/08 04:44:02;;;;;;;17.02;10.00;;;;;;;13.74;80.36;101613.97;5018315;28;20099;-75
2021/09/08 04:46:28;;;;;;;16.38;9.65;;;;;;;13.73;80.31;101608.91;5034622;28;20163;-75
2021/09/08 04:48:53;;;;;;;17.65;10.02;;;;;;;13.74;80.11;101608.78;5022585;28;20029;-75
2021/09/08 04:51:19;;;;;;;15.02;9.68;;;;;;;13.71;80.13;101603.88;5035650;28;20483;-75
2021/09/08 04:53:45;;;;;;;17.00;9.48;;;;;;;13.68;80.21;101606.00;5028295;28;20032;-75
2021/09/08 04:56:10;;;;;;;23.38;9.63;;;;;;;13.66;80.30;101608.75;5010918;28;20513;-75
2021/09/08 04:58:36;;;;;;;17.20;9.30;;;;;;;13.65;80.01;101603.69;5033678;28;20425;-75
2021/09/08 05:01:01;;;;;;;16.33;9.40;;;;;;;13.63;80.21;101604.66;5034418;28;20068;-75
2021/09/08 05:03:27;;;;;;;18.27;9.85;;;;;;;13.62;80.27;101597.00;5020228;28;20110;-75
2021/09/08 05:05:52;;;;;;;15.52;10.00;;;;;;;13.60;80.57;101598.97;5003097;28;20082;-75
2021/09/08 05:08:18;;;;;;;18.83;10.65;;;;;;;13.60;80.69;101601.56;5011401;28;20112;-75
2021/09/08 05:10:43;;;;;;;19.73;10.38;;;;;;;13.59;80.77;101594.72;5013262;28;20408;-75
2021/09/08 05:13:09;;;;;;;17.20;10.02;;;;;;;13.60;80.76;101594.56;5018781;28;20040;-75
2021/09/08 05:15:34;;;;;;;19.30;10.57;;;;;;;13.61;80.94;101598.78;5026034;28;20033;-75
2021/09/08 05:18:00;;;;;;;18.90;10.13;;;;;;;13.63;81.09;101599.44;5035174;28;20376;-75
2021/09/08 05:20:26;;;;;;;18.63;10.95;;;;;;;13.64;81.00;101595.06;5018612;28;20124;-75
2021/09/08 05:22:52;;;;;;;20.80;10.55;;;;;;;13.66;80.92;101598.31;5037942;28;20044;-75
2021/09/08 05:25:17;;;;;;;16.83;10.02;;;;;;;13.66;80.74;101598.31;5032640;28;20037;-75
2021/09/08 05:27:43;;;;;;;19.42;10.18;;;;;;;13.70;80.82;101591.00;5029485;28;20503;-75
2021/09/08 05:30:09;;;;;;;25.20;10.98;;;;;;;13.71;80.96;101590.03;5021576;28;20056;-75
2021/09/08 05:32:34;;;;;;;20.63;10.88;;;;;;;13.70;81.10;101589.22;5031530;28;20088;-75
2021/09/08 05:35:00;;;;;;;23.80;11.32;;;;;;;13.72;81.37;101594.28;5035664;28;20033;-75
2021/09/08 05:37:25;;;;;;;20.23;10.30;;;;;;;13.71;81.80;101596.06;5007159;28;20095;-75
2021/09/08 05:39:51;;;;;;;18.23;10.50;;;;;;;13.73;81.54;101601.09;5011714;28;20037;-74
2021/09/08 05:42:17;;;;;;;19.02;9.88;;;;;;;13.74;81.40;101593.13;5014725;28;20112;-75
2021/09/08 05:44:42;;;;;;;19.42;10.75;;;;;;;13.76;81.21;101596.41;5041138;28;20067;-75
2021/09/08 05:47:08;;;;;;;20.25;10.98;;;;;;;13.78;81.12;101594.44;5030368;28;20122;-75
2021/09/08 05:49:33;;;;;;;20.67;10.93;;;;;;;13.79;81.30;101595.28;5020528;28;20041;-75
2021/09/08 05:51:59;;;;;;;21.15;11.48;;;;;;;13.82;81.63;101597.56;5030785;28;20072;-75
2021/09/08 05:54:24;;;;;;;21.10;11.32;;;;;;;13.85;81.65;101601.66;5031575;28;20040;-75
2021/09/08 05:56:50;;;;;;;18.65;10.30;;;;;;;13.88;81.86;101598.72;5018325;28;20076;-75
2021/09/08 05:59:15;;;;;;;19.33;11.13;;;;;;;13.90;81.85;101604.59;5019378;28;20037;-76
2021/09/08 06:01:41;;;;;;;19.00;11.40;;;;;;;13.94;82.23;101600.72;5033145;28;20025;-75
2021/09/08 06:04:25;;;;;;;19.40;11.35;;;;;;;13.96;82.30;101590.94;5030888;28;20053;-75
2021/09/08 06:06:53;;;;;;;19.05;10.95;;;;;;;13.99;82.45;101593.22;4998851;28;20037;-75
2021/09/08 06:09:19;;;;;;;18.10;10.48;;;;;;;14.02;82.58;101595.50;5028588;28;20450;-75
2021/09/08 06:11:44;;;;;;;18.25;11.23;;;;;;;14.05;82.30;101597.78;5020211;28;20025;-75
2021/09/08 06:14:12;;;;;;;18.90;10.80;;;;;;;14.09;82.64;101587.84;5015265;28;20033;-75
2021/09/08 06:16:38;;;;;;;20.73;10.50;;;;;;;14.12;82.53;101593.56;5021150;28;20461;-75
2021/09/08 06:19:03;;;;;;;23.90;11.68;;;;;;;14.16;82.79;101591.44;5034603;28;20057;-75
2021/09/08 06:21:29;;;;;;;19.02;10.93;;;;;;;14.20;83.17;101597.97;5024273;28;20021;-76
2021/09/08 06:23:54;;;;;;;23.27;13.18;;;;;;;14.28;83.33;101607.59;5027737;28;20433;-75
2021/09/08 06:26:19;;;;;;;22.73;12.43;;;;;;;14.35;83.91;101601.63;5031606;28;20037;-75
2021/09/08 06:28:45;;;;;;;20.77;11.75;;;;;;;14.44;83.90;101599.00;5026894;28;20407;-75
2021/09/08 06:31:11;;;;;;;29.00;14.52;;;;;;;14.53;84.19;101598.84;5027420;28;20360;-76
2021/09/08 06:33:38;;;;;;;26.95;14.15;;;;;;;14.66;84.05;101590.56;5018569;28;20037;-77
2021/09/08 06:36:04;;;;;;;37.08;15.43;;;;;;;14.83;83.93;101588.75;5001653;28;20048;-75
2021/09/08 06:38:29;;;;;;;28.15;15.05;;;;;;;15.06;83.17;101585.47;5029513;28;20033;-76
2021/09/08 06:40:58;;;;;;;30.45;15.30;;;;;;;15.37;80.95;101583.75;5029376;28;20041;-79
2021/09/08 06:43:24;;;;;;;27.25;15.50;;;;;;;15.60;79.86;101572.56;5002181;28;20574;-77
2021/09/08 06:45:49;;;;;;;25.23;13.63;;;;;;;15.90;79.58;101578.81;5011866;28;20036;-77
2021/09/08 06:48:15;;;;;;;31.38;16.67;;;;;;;16.36;77.34;101575.38;5005506;28;20091;-76
2021/09/08 06:50:41;;;;;;;36.08;16.17;;;;;;;16.95;75.10;101572.09;5018648;28;20387;-76
2021/09/08 06:53:06;;;;;;;21.95;14.20;;;;;;;17.69;73.40;101572.09;5012171;28;20040;-76
2021/09/08 06:55:32;;;;;;;23.95;13.13;;;;;;;18.51;69.34;101561.38;5030007;28;20037;-77
2021/09/08 06:57:58;;;;;;;21.58;12.15;;;;;;;19.28;66.83;101564.94;5000259;28;20477;-78
2021/09/08 07:00:23;;;;;;;23.75;13.38;;;;;;;19.83;64.84;101560.50;5024626;28;20029;-78
2021/09/08 07:02:49;;;;;;;21.90;13.00;;;;;;;20.26;62.77;101552.25;5011693;28;20382;-80
2021/09/08 07:05:17;;;;;;;21.58;12.07;;;;;;;20.63;61.58;101552.69;5011227;28;20025;-81
2021/09/08 07:07:42;;;;;;;22.20;12.52;;;;;;;20.91;60.64;101549.81;5018653;28;20081;-77
2021/09/08 07:10:08;;;;;;;23.25;12.35;;;;;;;21.05;58.80;101552.41;5029769;28;20061;-79
2021/09/08 07:12:34;;;;;;;23.05;11.60;;;;;;;21.26;58.96;101548.69;5010929;28;20087;-78
2021/09/08 07:15:00;;;;;;;20.70;11.27;;;;;;;21.27;57.97;101547.69;5019573;28;20224;-76
2021/09/08 07:17:25;;;;;;;23.75;11.68;;;;;;;21.52;57.40;101545.16;5015733;28;20037;-77
2021/09/08 07:19:51;;;;;;;20.02;11.70;;;;;;;21.60;57.52;101538.81;5027779;28;20021;-79
2021/09/08 07:22:16;;;;;;;22.95;11.63;;;;;;;21.96;56.48;101539.00;5005020;28;20354;-80
2021/09/08 07:24:42;;;;;;;24.98;11.52;;;;;;;21.91;55.99;101543.31;5014874;28;20053;-79
2021/09/08 07:27:08;;;;;;;20.33;11.30;;;;;;;21.77;56.36;101539.94;5018069;28;20029;-79
2021/09/08 07:29:34;;;;;;;22.27;11.25;;;;;;;21.67;56.67;101534.31;5007825;28;20041;-75
2021/09/08 07:31:59;;;;;;;19.63;10.27;;;;;;;21.55;56.76;101532.34;5028246;28;20037;-79
2021/09/08 07:34:25;;;;;;;23.25;10.77;;;;;;;21.61;56.49;101527.25;5014431;28;20029;-75
2021/09/08 07:36:51;;;;;;;18.13;10.50;;;;;;;21.94;55.31;101533.13;4999799;28;20412;-75
2021/09/08 07:39:16;;;;;;;17.92;10.35;;;;;;;22.10;56.26;101531.78;5018191;28;20029;-76
2021/09/08 07:41:42;;;;;;;18.98;10.90;;;;;;;21.85;55.90;101531.78;5011700;28;20475;-75
2021/09/08 07:44:08;;;;;;;19.08;11.02;;;;;;;21.89;55.10;101532.97;5018997;28;20029;-78
2021/09/08 07:46:34;;;;;;;20.42;11.55;;;;;;;22.08;55.83;101535.69;5005159;28;20033;-76
2021/09/08 07:48:59;;;;;;;17.95;8.82;;;;;;;22.47;54.49;101525.81;5007369;28;20029;-74
2021/09/08 07:51:25;;;;;;;25.40;10.77;;;;;;;22.13;54.99;101533.19;5014084;28;20044;-77
2021/09/08 07:53:51;;;;;;;21.38;10.25;;;;;;;22.22;54.74;101526.59;5025683;28;20025;-78
2021/09/08 07:56:16;;;;;;;19.95;12.05;;;;;;;22.25;54.53;101522.75;5029324;28;20535;-75
2021/09/08 07:58:42;;;;;;;17.70;10.25;;;;;;;22.54;54.56;101521.28;5013119;28;20087;-76
2021/09/08 08:01:07;;;;;;;17.50;10.25;;;;;;;22.53;54.40;101519.69;5034209;28;20430;-76
2021/09/08 08:03:33;;;;;;;21.30;9.80;;;;;;;23.05;53.62;101520.13;5016277;28;20508;-76
2021/09/08 08:05:58;;;;;;;17.90;10.80;;;;;;;23.16;52.61;101509.84;5010078;28;20041;-76
2021/09/08 08:08:24;;;;;;;20.90;10.65;;;;;;;23.64;52.98;101509.00;5022625;28;20037;-78
2021/09/08 08:10:49;;;;;;;15.75;9.48;;;;;;;24.27;51.50;101516.38;5007777;28;20592;-80
2021/09/08 08:13:15;;;;;;;15.77;9.65;;;;;;;24.35;50.12;101514.44;4996349;28;20036;-76
2021/09/08 08:15:40;;;;;;;19.02;10.63;;;;;;;23.94;51.11;101513.47;5019402;28;20033;-80
2021/09/08 08:18:06;;;;;;;20.63;10.32;;;;;;;23.84;50.37;101512.19;5021087;28;20041;-80
2021/09/08 08:20:31;;;;;;;18.90;10.80;;;;;;;23.46;51.63;101510.66;5021154;28;20091;-76
2021/09/08 08:22:57;;;;;;;23.52;10.60;;;;;;;23.70;51.52;101508.91;5023111;28;20049;-81
2021/09/08 08:25:31;;;;;;;16.05;9.10;;;;;;;23.79;51.28;101503.31;5018189;28;20088;-75
2021/09/08 08:27:58;;;;;;;14.88;9.80;;;;;;;23.97;51.15;101513.03;5017248;28;20033;-75
2021/09/08 08:30:25;;;;;;;19.85;9.80;;;;;;;24.26;50.67;101508.66;5028997;28;20466;-76
2021/09/08 08:32:51;;;;;;;17.23;9.75;;;;;;;24.43;50.30;101499.00;5007036;28;20095;-77
2021/09/08 08:35:17;;;;;;;17.88;9.73;;;;;;;24.68;49.80;101505.91;5012595;28;20061;-77
2021/09/08 08:37:43;;;;;;;18.35;10.23;;;;;;;24.49;49.20;101500.72;5035280;28;20045;-80
2021/09/08 08:40:10;;;;;;;15.52;9.52;;;;;;;24.42;49.74;101499.22;5017513;28;20048;-78
2021/09/08 08:42:36;;;;;;;21.58;10.80;;;;;;;24.34;49.89;101504.88;5027038;28;20082;-77
2021/09/08 08:45:03;;;;;;;18.05;10.13;;;;;;;24.67;49.89;101499.78;5024797;28;20044;-76
2021/09/08 08:47:29;;;;;;;17.00;10.13;;;;;;;25.09;49.24;101505.91;5018914;28;20135;-76
2021/09/08 08:49:55;;;;;;;20.15;10.00;;;;;;;25.37;48.24;101502.47;5019302;28;20052;-77
2021/09/08 08:52:21;;;;;;;18.73;10.10;;;;;;;25.14;49.18;101501.50;5008156;28;20029;-76
2021/09/08 08:54:47;;;;;;;16.75;9.85;;;;;;;25.00;48.27;101493.03;5010979;28;20037;-79
2021/09/08 08:57:14;;;;;;;18.55;9.80;;;;;;;25.44;47.65;101490.66;5033623;28;20044;-76
2021/09/08 08:59:42;;;;;;;15.35;10.05;;;;;;;25.33;47.48;101494.19;5009321;28;20388;-77
2021/09/08 09:02:22;;;;;;;15.15;10.40;;;;;;;25.42;47.44;101489.31;5008895;28;20033;-75
2021/09/08 09:04:49;;;;;;;17.17;9.80;;;;;;;25.19;48.01;101490.19;5013080;28;20040;-77
2021/09/08 09:07:33;;;;;;;17.42;10.15;;;;;;;24.99;48.30;101480.00;5016194;28;20030;-79
2021/09/08 09:10:01;;;;;;;17.20;10.07;;;;;;;24.99;48.96;101483.44;5009025;28;20045;-76
2021/09/08 09:12:33;;;;;;;15.48;10.18;;;;;;;25.27;48.63;101484.53;5028467;28;20033;-76
2021/09/08 09:15:03;;;;;;;24.98;10.65;;;;;;;25.28;47.97;101477.38;5000054;28;20040;-78
2021/09/08 09:17:30;;;;;;;20.20;10.52;;;;;;;25.00;47.87;101484.28;5013753;28;20106;-78
2021/09/08 09:19:57;;;;;;;30.13;10.50;;;;;;;25.24;47.90;101485.00;5027336;28;20406;-77
2021/09/08 09:22:35;;;;;;;17.15;10.43;;;;;;;25.47;47.22;101480.63;5000600;28;20048;-79
2021/09/08 09:25:00;;;;;;;15.20;9.70;;;;;;;25.39;47.55;101474.69;4992789;28;20045;-75
2021/09/08 09:27:26;;;;;;;19.92;10.10;;;;;;;25.44;47.09;101469.44;5029712;28;20028;-77
2021/09/08 09:29:52;;;;;;;14.45;9.43;;;;;;;25.61;47.80;101466.81;5003107;28;20096;-77
2021/09/08 09:32:17;;;;;;;18.65;10.40;;;;;;;25.69;47.46;101459.47;4998500;28;20059;-77
2021/09/08 09:34:43;;;;;;;18.27;9.32;;;;;;;25.89;46.99;101462.47;5016349;28;20040;-78
2021/09/08 09:37:09;;;;;;;14.48;9.13;;;;;;;25.82;47.32;101459.97;5027409;28;20076;-75
2021/09/08 09:39:38;;;;;;;14.57;8.48;;;;;;;26.16;47.78;101462.63;5023756;28;20037;-77
2021/09/08 09:42:12;;;;;;;24.80;11.30;;;;;;;26.07;45.91;101456.13;5007373;28;20042;-77
2021/09/08 09:44:40;;;;;;;17.90;9.70;;;;;;;26.19;46.61;101456.03;5029568;28;20251;-77
2021/09/08 09:47:06;;;;;;;16.23;9.60;;;;;;;26.42;46.66;101457.66;5012657;28;20169;-78
2021/09/08 09:49:33;;;;;;;16.15;9.85;;;;;;;26.56;45.37;101458.91;5029269;28;20033;-78
2021/09/08 09:52:03;;;;;;;14.50;8.30;;;;;;;26.42;45.61;101463.75;5013931;28;20084;-76
2021/09/08 09:54:29;;;;;;;19.58;9.93;;;;;;;26.28;45.98;101456.41;5009108;28;20053;-76
2021/09/08 09:56:55;;;;;;;15.95;9.10;;;;;;;26.11;47.11;101453.78;5027969;28;20106;-78
2021/09/08 09:59:22;;;;;;;22.23;10.18;;;;;;;26.29;46.11;101447.38;5025331;28;20037;-78
2021/09/08 10:01:47;;;;;;;14.95;8.70;;;;;;;26.43;46.54;101445.97;5033673;28;20099;-76
2021/09/08 10:04:13;;;;;;;14.68;8.90;;;;;;;26.55;46.03;101449.31;5013642;28;20037;-80
2021/09/08 10:06:40;;;;;;;19.08;9.80;;;;;;;26.37;44.75;101447.75;5019316;28;20041;-77
2021/09/08 10:09:09;;;;;;;19.75;9.25;;;;;;;26.25;45.51;101441.75;5023699;28;20047;-76
2021/09/08 10:11:44;;;;;;;12.63;8.98;;;;;;;26.38;45.96;101441.38;5033044;28;20064;-79
2021/09/08 10:14:21;;;;;;;15.82;8.90;;;;;;;26.32;45.14;101438.91;5007249;28;20041;-77
2021/09/08 10:16:48;;;;;;;17.33;9.32;;;;;;;26.38;45.52;101428.09;5028434;28;20044;-77
2021/09/08 10:19:22;;;;;;;14.95;9.38;;;;;;;26.64;44.45;101430.31;5009636;28;20090;-77
2021/09/08 10:21:51;;;;;;;12.25;9.05;;;;;;;26.68;45.36;101426.09;5010469;28;20442;-78
2021/09/08 10:24:18;;;;;;;19.67;9.80;;;;;;;26.71;44.54;101420.25;5002777;28;20501;-83
2021/09/08 10:26:45;;;;;;;15.07;9.43;;;;;;;26.81;45.04;101409.75;5011611;28;20575;-78
2021/09/08 10:29:12;;;;;;;14.43;8.20;;;;;;;27.01;44.31;101409.13;5011830;28;20045;-78
2021/09/08 10:31:41;;;;;;;12.98;8.68;;;;;;;27.09;45.24;101405.22;4996257;28;20041;-77
2021/09/08 10:34:08;;;;;;;17.33;9.10;;;;;;;26.97;43.41;101400.03;5016710;28;20114;-79
2021/09/08 10:36:35;;;;;;;18.98;9.13;;;;;;;26.88;42.65;101398.88;5028658;28;20568;-76
2021/09/08 10:39:12;;;;;;;16.83;9.52;;;;;;;26.86;43.25;101393.84;5018640;28;20089;-78
2021/09/08 10:41:43;;;;;;;14.00;9.55;;;;;;;26.93;43.65;101391.75;5015640;28;20171;-77
2021/09/08 10:44:11;;;;;;;13.60;9.13;;;;;;;27.17;43.73;101383.47;5019013;28;20056;-75
2021/09/08 10:46:53;;;;;;;14.40;9.50;;;;;;;27.14;43.38;101392.78;5021192;28;20132;-76
2021/09/08 10:49:37;;;;;;;16.08;8.95;;;;;;;27.28;41.91;101385.19;5037479;28;20091;-75
2021/09/08 10:52:10;;;;;;;15.93;8.85;;;;;;;27.10;41.22;101377.56;5027415;28;20103;-80
2021/09/08 10:54:54;;;;;;;16.45;9.95;;;;;;;26.71;42.84;101378.53;5006691;28;20472;-78
2021/09/08 10:57:41;;;;;;;13.35;9.25;;;;;;;26.77;42.40;101372.19;5012108;28;20515;-77
2021/09/08 11:00:13;;;;;;;18.00;9.05;;;;;;;27.08;43.23;101363.69;5002306;28;20041;-78
2021/09/08 11:02:40;;;;;;;13.32;8.93;;;;;;;27.18;41.66;101361.94;5027281;28;20037;-76
2021/09/08 11:05:06;;;;;;;13.77;8.32;;;;;;;27.15;41.47;101358.97;5042658;28;20040;-78
2021/09/08 11:07:31;;;;;;;13.65;8.68;;;;;;;27.25;41.88;101353.75;5033102;28;20044;-79
2021/09/08 11:09:57;;;;;;;11.30;7.75;;;;;;;27.34;41.28;101357.56;5036580;28;20035;-82
2021/09/08 11:12:50;;;;;;;14.00;8.20;;;;;;;27.52;41.36;101360.84;5019651;28;20048;-78